sensor_id;sensor_type;location;lat;lon;timestamp;P1;durP1;ratioP1;P2;durP2;ratioP2
79149;SDS011;68563;45.644;13.782;2024-03-06T00:00:24;9.93;;;4.60;;
79149;SDS011;68563;45.644;13.782;2024-03-06T00:02:50;10.45;;;4.70;;
79149;SDS011;68563;45.644;13.782;2024-03-06T00:05:16;9.30;;;4.50;;
79149;SDS011;68563;45.644;13.782;2024-03-06T00:07:41;8.07;;;4.50;;
79149;SDS011;68563;45.644;13.782;2024-03-06T00:10:06;11.90;;;5.10;;
79149;SDS011;68563;45.644;13.782;2024-03-06T00:12:32;9.65;;;4.68;;
79149;SDS011;68563;45.644;13.782;2024-03-06T00:14:58;10.57;;;5.00;;
79149;SDS011;68563;45.644;13.782;2024-03-06T00:17:24;10.18;;;4.72;;
79149;SDS011;68563;45.644;13.782;2024-03-06T00:19:49;10.07;;;4.88;;
79149;SDS011;68563;45.644;13.782;2024-03-06T00:22:14;17.25;;;5.00;;
79149;SDS011;68563;45.644;13.782;2024-03-06T00:24:40;10.07;;;4.95;;
79149;SDS011;68563;45.644;13.782;2024-03-06T00:27:05;9.85;;;5.05;;
79149;SDS011;68563;45.644;13.782;2024-03-06T00:29:31;10.88;;;5.22;;
79149;SDS011;68563;45.644;13.782;2024-03-06T00:31:56;12.43;;;5.13;;
79149;SDS011;68563;45.644;13.782;2024-03-06T00:34:21;7.90;;;4.57;;
79149;SDS011;68563;45.644;13.782;2024-03-06T00:36:47;8.85;;;5.00;;
79149;SDS011;68563;45.644;13.782;2024-03-06T00:39:13;9.77;;;5.30;;
79149;SDS011;68563;45.644;13.782;2024-03-06T00:41:39;10.02;;;4.53;;
79149;SDS011;68563;45.644;13.782;2024-03-06T00:44:05;8.63;;;4.90;;
79149;SDS011;68563;45.644;13.782;2024-03-06T00:46:30;10.55;;;5.07;;
79149;SDS011;68563;45.644;13.782;2024-03-06T00:48:56;9.48;;;4.95;;
79149;SDS011;68563;45.644;13.782;2024-03-06T00:51:22;12.23;;;5.45;;
79149;SDS011;68563;45.644;13.782;2024-03-06T00:53:47;11.05;;;4.80;;
79149;SDS011;68563;45.644;13.782;2024-03-06T00:56:12;10.07;;;4.68;;
79149;SDS011;68563;45.644;13.782;2024-03-06T00:58:38;12.73;;;4.90;;
79149;SDS011;68563;45.644;13.782;2024-03-06T01:01:03;8.75;;;4.55;;
79149;SDS011;68563;45.644;13.782;2024-03-06T01:03:29;12.65;;;4.78;;
79149;SDS011;68563;45.644;13.782;2024-03-06T01:05:54;10.52;;;5.00;;
79149;SDS011;68563;45.644;13.782;2024-03-06T01:08:21;10.82;;;4.72;;
79149;SDS011;68563;45.644;13.782;2024-03-06T01:10:49;11.88;;;5.63;;
79149;SDS011;68563;45.644;13.782;2024-03-06T01:13:15;9.70;;;4.90;;
79149;SDS011;68563;45.644;13.782;2024-03-06T01:15:41;9.38;;;5.07;;
79149;SDS011;68563;45.644;13.782;2024-03-06T01:18:06;10.20;;;5.10;;
79149;SDS011;68563;45.644;13.782;2024-03-06T01:20:32;9.32;;;4.60;;
79149;SDS011;68563;45.644;13.782;2024-03-06T01:22:57;12.30;;;5.53;;
79149;SDS011;68563;45.644;13.782;2024-03-06T01:25:23;8.57;;;4.60;;
79149;SDS011;68563;45.644;13.782;2024-03-06T01:27:49;9.85;;;4.85;;
79149;SDS011;68563;45.644;13.782;2024-03-06T01:30:14;11.82;;;5.35;;
79149;SDS011;68563;45.644;13.782;2024-03-06T01:32:40;13.38;;;4.97;;
79149;SDS011;68563;45.644;13.782;2024-03-06T01:35:06;12.75;;;5.63;;
79149;SDS011;68563;45.644;13.782;2024-03-06T01:37:32;16.05;;;5.30;;
79149;SDS011;68563;45.644;13.782;2024-03-06T01:39:57;12.90;;;5.68;;
79149;SDS011;68563;45.644;13.782;2024-03-06T01:42:23;10.27;;;5.70;;
79149;SDS011;68563;45.644;13.782;2024-03-06T01:44:48;8.73;;;5.40;;
79149;SDS011;68563;45.644;13.782;2024-03-06T01:47:14;13.15;;;6.00;;
79149;SDS011;68563;45.644;13.782;2024-03-06T01:49:39;14.10;;;5.80;;
79149;SDS011;68563;45.644;13.782;2024-03-06T01:52:05;12.38;;;5.68;;
79149;SDS011;68563;45.644;13.782;2024-03-06T01:54:32;9.82;;;5.65;;
79149;SDS011;68563;45.644;13.782;2024-03-06T01:56:58;9.82;;;5.43;;
79149;SDS011;68563;45.644;13.782;2024-03-06T01:59:28;11.75;;;5.53;;
79149;SDS011;68563;45.644;13.782;2024-03-06T02:01:53;11.75;;;6.30;;
79149;SDS011;68563;45.644;13.782;2024-03-06T02:04:19;12.15;;;6.20;;
79149;SDS011;68563;45.644;13.782;2024-03-06T02:06:45;9.43;;;5.68;;
79149;SDS011;68563;45.644;13.782;2024-03-06T02:09:12;10.88;;;5.32;;
79149;SDS011;68563;45.644;13.782;2024-03-06T02:11:39;13.55;;;5.93;;
79149;SDS011;68563;45.644;13.782;2024-03-06T02:14:05;9.40;;;5.38;;
79149;SDS011;68563;45.644;13.782;2024-03-06T02:16:37;10.98;;;5.57;;
79149;SDS011;68563;45.644;13.782;2024-03-06T02:19:06;10.13;;;5.47;;
79149;SDS011;68563;45.644;13.782;2024-03-06T02:21:31;12.00;;;5.82;;
79149;SDS011;68563;45.644;13.782;2024-03-06T02:23:56;13.02;;;6.03;;
79149;SDS011;68563;45.644;13.782;2024-03-06T02:26:22;12.00;;;5.85;;
79149;SDS011;68563;45.644;13.782;2024-03-06T02:28:51;12.70;;;5.85;;
79149;SDS011;68563;45.644;13.782;2024-03-06T02:33:44;9.25;;;5.40;;
79149;SDS011;68563;45.644;13.782;2024-03-06T02:36:12;14.15;;;5.75;;
79149;SDS011;68563;45.644;13.782;2024-03-06T02:38:37;10.43;;;5.32;;
79149;SDS011;68563;45.644;13.782;2024-03-06T02:41:03;13.40;;;5.70;;
79149;SDS011;68563;45.644;13.782;2024-03-06T02:43:29;10.75;;;5.38;;
79149;SDS011;68563;45.644;13.782;2024-03-06T02:45:54;11.50;;;5.90;;
79149;SDS011;68563;45.644;13.782;2024-03-06T02:48:19;11.45;;;5.30;;
79149;SDS011;68563;45.644;13.782;2024-03-06T02:50:45;10.80;;;5.63;;
79149;SDS011;68563;45.644;13.782;2024-03-06T02:53:10;12.23;;;5.13;;
79149;SDS011;68563;45.644;13.782;2024-03-06T02:55:36;11.80;;;5.28;;
79149;SDS011;68563;45.644;13.782;2024-03-06T02:58:02;13.40;;;5.40;;
79149;SDS011;68563;45.644;13.782;2024-03-06T03:00:28;7.93;;;5.00;;
79149;SDS011;68563;45.644;13.782;2024-03-06T03:02:53;9.95;;;5.40;;
79149;SDS011;68563;45.644;13.782;2024-03-06T03:05:19;8.68;;;4.97;;
79149;SDS011;68563;45.644;13.782;2024-03-06T03:07:44;10.20;;;4.82;;
79149;SDS011;68563;45.644;13.782;2024-03-06T03:10:09;9.50;;;4.10;;
79149;SDS011;68563;45.644;13.782;2024-03-06T03:12:35;13.40;;;4.35;;
79149;SDS011;68563;45.644;13.782;2024-03-06T03:15:03;13.27;;;4.38;;
79149;SDS011;68563;45.644;13.782;2024-03-06T03:17:29;12.52;;;5.03;;
79149;SDS011;68563;45.644;13.782;2024-03-06T03:19:54;9.93;;;4.35;;
79149;SDS011;68563;45.644;13.782;2024-03-06T03:22:20;12.15;;;4.35;;
79149;SDS011;68563;45.644;13.782;2024-03-06T03:24:46;15.07;;;4.68;;
79149;SDS011;68563;45.644;13.782;2024-03-06T03:27:12;12.73;;;5.00;;
79149;SDS011;68563;45.644;13.782;2024-03-06T03:29:38;11.82;;;5.03;;
79149;SDS011;68563;45.644;13.782;2024-03-06T03:32:03;13.30;;;4.72;;
79149;SDS011;68563;45.644;13.782;2024-03-06T03:34:29;11.73;;;4.80;;
79149;SDS011;68563;45.644;13.782;2024-03-06T03:36:55;16.73;;;4.65;;
79149;SDS011;68563;45.644;13.782;2024-03-06T03:39:21;13.05;;;5.35;;
79149;SDS011;68563;45.644;13.782;2024-03-06T03:41:52;11.13;;;4.25;;
79149;SDS011;68563;45.644;13.782;2024-03-06T03:44:18;11.98;;;4.22;;
79149;SDS011;68563;45.644;13.782;2024-03-06T03:46:44;16.48;;;4.53;;
79149;SDS011;68563;45.644;13.782;2024-03-06T03:49:10;9.90;;;4.07;;
79149;SDS011;68563;45.644;13.782;2024-03-06T03:51:36;16.02;;;4.38;;
79149;SDS011;68563;45.644;13.782;2024-03-06T03:54:05;11.18;;;4.20;;
79149;SDS011;68563;45.644;13.782;2024-03-06T03:56:31;9.48;;;4.13;;
79149;SDS011;68563;45.644;13.782;2024-03-06T03:58:57;10.70;;;4.30;;
79149;SDS011;68563;45.644;13.782;2024-03-06T04:01:23;12.45;;;4.75;;
79149;SDS011;68563;45.644;13.782;2024-03-06T04:03:49;12.13;;;4.93;;
79149;SDS011;68563;45.644;13.782;2024-03-06T04:06:15;15.35;;;4.57;;
79149;SDS011;68563;45.644;13.782;2024-03-06T04:08:42;10.80;;;4.80;;
79149;SDS011;68563;45.644;13.782;2024-03-06T04:11:07;15.75;;;5.28;;
79149;SDS011;68563;45.644;13.782;2024-03-06T04:13:36;10.88;;;4.15;;
79149;SDS011;68563;45.644;13.782;2024-03-06T04:16:02;16.30;;;4.65;;
79149;SDS011;68563;45.644;13.782;2024-03-06T04:18:29;10.18;;;3.97;;
79149;SDS011;68563;45.644;13.782;2024-03-06T04:20:54;14.52;;;4.80;;
79149;SDS011;68563;45.644;13.782;2024-03-06T04:23:19;10.05;;;4.65;;
79149;SDS011;68563;45.644;13.782;2024-03-06T04:25:45;14.25;;;4.85;;
79149;SDS011;68563;45.644;13.782;2024-03-06T04:28:10;17.00;;;5.47;;
79149;SDS011;68563;45.644;13.782;2024-03-06T04:30:36;11.70;;;6.05;;
79149;SDS011;68563;45.644;13.782;2024-03-06T04:33:01;12.40;;;6.00;;
79149;SDS011;68563;45.644;13.782;2024-03-06T04:35:28;13.25;;;6.05;;
79149;SDS011;68563;45.644;13.782;2024-03-06T04:37:53;12.50;;;6.18;;
79149;SDS011;68563;45.644;13.782;2024-03-06T04:40:19;13.23;;;6.88;;
79149;SDS011;68563;45.644;13.782;2024-03-06T04:42:47;12.95;;;6.13;;
79149;SDS011;68563;45.644;13.782;2024-03-06T04:45:14;10.75;;;5.85;;
79149;SDS011;68563;45.644;13.782;2024-03-06T04:47:41;14.07;;;6.03;;
79149;SDS011;68563;45.644;13.782;2024-03-06T04:50:10;15.90;;;6.50;;
79149;SDS011;68563;45.644;13.782;2024-03-06T04:52:37;12.77;;;5.93;;
79149;SDS011;68563;45.644;13.782;2024-03-06T04:55:06;11.10;;;5.85;;
79149;SDS011;68563;45.644;13.782;2024-03-06T04:57:32;13.88;;;6.07;;
79149;SDS011;68563;45.644;13.782;2024-03-06T04:59:58;12.73;;;5.57;;
79149;SDS011;68563;45.644;13.782;2024-03-06T05:02:23;11.93;;;4.90;;
79149;SDS011;68563;45.644;13.782;2024-03-06T05:04:50;14.07;;;5.60;;
79149;SDS011;68563;45.644;13.782;2024-03-06T05:07:16;13.05;;;5.63;;
79149;SDS011;68563;45.644;13.782;2024-03-06T05:09:41;13.57;;;5.63;;
79149;SDS011;68563;45.644;13.782;2024-03-06T05:12:07;8.40;;;4.60;;
79149;SDS011;68563;45.644;13.782;2024-03-06T05:14:33;11.15;;;4.72;;
79149;SDS011;68563;45.644;13.782;2024-03-06T05:16:58;10.05;;;4.57;;
79149;SDS011;68563;45.644;13.782;2024-03-06T05:19:24;10.93;;;4.40;;
79149;SDS011;68563;45.644;13.782;2024-03-06T05:21:56;10.68;;;4.10;;
79149;SDS011;68563;45.644;13.782;2024-03-06T05:24:23;10.60;;;3.83;;
79149;SDS011;68563;45.644;13.782;2024-03-06T05:26:48;14.75;;;4.53;;
79149;SDS011;68563;45.644;13.782;2024-03-06T05:29:14;10.30;;;4.45;;
79149;SDS011;68563;45.644;13.782;2024-03-06T05:31:39;14.98;;;4.25;;
79149;SDS011;68563;45.644;13.782;2024-03-06T05:34:05;10.10;;;3.10;;
79149;SDS011;68563;45.644;13.782;2024-03-06T05:36:30;7.95;;;2.83;;
79149;SDS011;68563;45.644;13.782;2024-03-06T05:38:55;7.32;;;3.33;;
79149;SDS011;68563;45.644;13.782;2024-03-06T05:41:21;8.02;;;3.40;;
79149;SDS011;68563;45.644;13.782;2024-03-06T05:43:46;8.57;;;3.50;;
79149;SDS011;68563;45.644;13.782;2024-03-06T05:46:12;7.60;;;3.00;;
79149;SDS011;68563;45.644;13.782;2024-03-06T05:48:37;9.55;;;3.35;;
79149;SDS011;68563;45.644;13.782;2024-03-06T05:51:02;6.30;;;2.92;;
79149;SDS011;68563;45.644;13.782;2024-03-06T05:53:28;9.60;;;3.20;;
79149;SDS011;68563;45.644;13.782;2024-03-06T05:55:53;10.02;;;2.72;;
79149;SDS011;68563;45.644;13.782;2024-03-06T05:58:19;9.95;;;2.80;;
79149;SDS011;68563;45.644;13.782;2024-03-06T06:00:45;9.88;;;3.25;;
79149;SDS011;68563;45.644;13.782;2024-03-06T06:03:11;11.15;;;2.50;;
79149;SDS011;68563;45.644;13.782;2024-03-06T06:05:36;12.48;;;2.97;;
79149;SDS011;68563;45.644;13.782;2024-03-06T06:08:04;9.18;;;2.90;;
79149;SDS011;68563;45.644;13.782;2024-03-06T06:10:30;12.48;;;2.95;;
79149;SDS011;68563;45.644;13.782;2024-03-06T06:12:55;11.13;;;3.17;;
79149;SDS011;68563;45.644;13.782;2024-03-06T06:15:21;9.48;;;2.72;;
79149;SDS011;68563;45.644;13.782;2024-03-06T06:17:47;9.75;;;2.60;;
79149;SDS011;68563;45.644;13.782;2024-03-06T06:20:13;12.45;;;2.70;;
79149;SDS011;68563;45.644;13.782;2024-03-06T06:22:43;9.05;;;2.40;;
79149;SDS011;68563;45.644;13.782;2024-03-06T06:25:09;11.45;;;2.40;;
79149;SDS011;68563;45.644;13.782;2024-03-06T06:27:35;6.82;;;2.50;;
79149;SDS011;68563;45.644;13.782;2024-03-06T06:30:00;8.13;;;2.65;;
79149;SDS011;68563;45.644;13.782;2024-03-06T06:32:26;9.20;;;3.35;;
79149;SDS011;68563;45.644;13.782;2024-03-06T06:34:51;6.10;;;2.80;;
79149;SDS011;68563;45.644;13.782;2024-03-06T06:37:17;11.18;;;4.15;;
79149;SDS011;68563;45.644;13.782;2024-03-06T06:39:44;10.60;;;4.22;;
79149;SDS011;68563;45.644;13.782;2024-03-06T06:42:10;9.15;;;4.55;;
79149;SDS011;68563;45.644;13.782;2024-03-06T06:44:35;10.32;;;4.30;;
79149;SDS011;68563;45.644;13.782;2024-03-06T06:47:02;9.65;;;4.75;;
79149;SDS011;68563;45.644;13.782;2024-03-06T06:49:27;9.63;;;5.32;;
79149;SDS011;68563;45.644;13.782;2024-03-06T06:51:52;12.05;;;5.20;;
79149;SDS011;68563;45.644;13.782;2024-03-06T06:54:18;10.18;;;5.22;;
79149;SDS011;68563;45.644;13.782;2024-03-06T06:56:43;14.85;;;5.65;;
79149;SDS011;68563;45.644;13.782;2024-03-06T06:59:08;14.85;;;6.47;;
79149;SDS011;68563;45.644;13.782;2024-03-06T07:01:34;9.20;;;5.18;;
79149;SDS011;68563;45.644;13.782;2024-03-06T07:04:00;13.77;;;6.03;;
79149;SDS011;68563;45.644;13.782;2024-03-06T07:06:27;11.40;;;6.50;;
79149;SDS011;68563;45.644;13.782;2024-03-06T07:08:52;12.30;;;6.95;;
79149;SDS011;68563;45.644;13.782;2024-03-06T07:11:18;11.57;;;7.50;;
79149;SDS011;68563;45.644;13.782;2024-03-06T07:13:44;11.23;;;7.18;;
79149;SDS011;68563;45.644;13.782;2024-03-06T07:16:09;13.40;;;7.07;;
79149;SDS011;68563;45.644;13.782;2024-03-06T07:18:35;14.40;;;6.93;;
79149;SDS011;68563;45.644;13.782;2024-03-06T07:21:00;14.73;;;6.97;;
79149;SDS011;68563;45.644;13.782;2024-03-06T07:23:26;14.13;;;7.53;;
79149;SDS011;68563;45.644;13.782;2024-03-06T07:25:51;12.93;;;7.03;;
79149;SDS011;68563;45.644;13.782;2024-03-06T07:28:17;13.68;;;7.53;;
79149;SDS011;68563;45.644;13.782;2024-03-06T07:30:42;13.35;;;7.70;;
79149;SDS011;68563;45.644;13.782;2024-03-06T07:33:08;13.32;;;7.32;;
79149;SDS011;68563;45.644;13.782;2024-03-06T07:35:33;10.65;;;6.20;;
79149;SDS011;68563;45.644;13.782;2024-03-06T07:38:01;14.02;;;7.65;;
79149;SDS011;68563;45.644;13.782;2024-03-06T07:40:28;17.67;;;8.23;;
79149;SDS011;68563;45.644;13.782;2024-03-06T07:42:53;14.10;;;7.75;;
79149;SDS011;68563;45.644;13.782;2024-03-06T07:45:18;13.57;;;7.00;;
79149;SDS011;68563;45.644;13.782;2024-03-06T07:47:45;12.82;;;7.22;;
79149;SDS011;68563;45.644;13.782;2024-03-06T07:50:10;12.65;;;6.85;;
79149;SDS011;68563;45.644;13.782;2024-03-06T07:52:36;13.35;;;7.38;;
79149;SDS011;68563;45.644;13.782;2024-03-06T07:55:01;14.82;;;7.57;;
79149;SDS011;68563;45.644;13.782;2024-03-06T07:57:28;13.48;;;6.95;;
79149;SDS011;68563;45.644;13.782;2024-03-06T07:59:53;14.45;;;7.88;;
79149;SDS011;68563;45.644;13.782;2024-03-06T08:02:20;12.88;;;7.53;;
79149;SDS011;68563;45.644;13.782;2024-03-06T08:04:46;13.20;;;7.22;;
79149;SDS011;68563;45.644;13.782;2024-03-06T08:07:12;14.45;;;8.27;;
79149;SDS011;68563;45.644;13.782;2024-03-06T08:09:38;8.70;;;5.20;;
79149;SDS011;68563;45.644;13.782;2024-03-06T08:12:03;9.68;;;5.55;;
79149;SDS011;68563;45.644;13.782;2024-03-06T08:14:29;9.40;;;4.00;;
79149;SDS011;68563;45.644;13.782;2024-03-06T08:16:54;9.13;;;4.53;;
79149;SDS011;68563;45.644;13.782;2024-03-06T08:19:20;10.02;;;4.32;;
79149;SDS011;68563;45.644;13.782;2024-03-06T08:21:46;9.68;;;5.00;;
79149;SDS011;68563;45.644;13.782;2024-03-06T08:24:11;9.65;;;5.03;;
79149;SDS011;68563;45.644;13.782;2024-03-06T08:26:37;9.65;;;5.20;;
79149;SDS011;68563;45.644;13.782;2024-03-06T08:29:03;8.00;;;4.43;;
79149;SDS011;68563;45.644;13.782;2024-03-06T08:31:28;8.20;;;3.92;;
79149;SDS011;68563;45.644;13.782;2024-03-06T08:33:54;6.25;;;2.90;;
79149;SDS011;68563;45.644;13.782;2024-03-06T08:36:19;5.28;;;2.95;;
79149;SDS011;68563;45.644;13.782;2024-03-06T08:38:47;4.55;;;2.65;;
79149;SDS011;68563;45.644;13.782;2024-03-06T08:41:12;5.65;;;2.53;;
79149;SDS011;68563;45.644;13.782;2024-03-06T08:43:37;3.88;;;2.33;;
79149;SDS011;68563;45.644;13.782;2024-03-06T08:46:03;6.10;;;2.20;;
79149;SDS011;68563;45.644;13.782;2024-03-06T08:48:30;4.35;;;1.95;;
79149;SDS011;68563;45.644;13.782;2024-03-06T08:50:55;3.25;;;1.90;;
79149;SDS011;68563;45.644;13.782;2024-03-06T08:53:20;3.58;;;2.38;;
79149;SDS011;68563;45.644;13.782;2024-03-06T08:55:46;5.90;;;2.25;;
79149;SDS011;68563;45.644;13.782;2024-03-06T08:58:12;4.03;;;2.20;;
79149;SDS011;68563;45.644;13.782;2024-03-06T09:00:39;5.78;;;2.40;;
79149;SDS011;68563;45.644;13.782;2024-03-06T09:03:05;4.93;;;1.92;;
79149;SDS011;68563;45.644;13.782;2024-03-06T09:05:30;3.97;;;2.28;;
79149;SDS011;68563;45.644;13.782;2024-03-06T09:07:56;3.72;;;1.92;;
79149;SDS011;68563;45.644;13.782;2024-03-06T09:10:22;3.70;;;2.05;;
79149;SDS011;68563;45.644;13.782;2024-03-06T09:12:48;3.50;;;1.90;;
79149;SDS011;68563;45.644;13.782;2024-03-06T09:15:14;2.92;;;1.73;;
79149;SDS011;68563;45.644;13.782;2024-03-06T09:17:40;2.50;;;1.52;;
79149;SDS011;68563;45.644;13.782;2024-03-06T09:20:05;2.03;;;1.38;;
79149;SDS011;68563;45.644;13.782;2024-03-06T09:22:37;2.65;;;1.45;;
79149;SDS011;68563;45.644;13.782;2024-03-06T09:25:07;2.17;;;1.33;;
79149;SDS011;68563;45.644;13.782;2024-03-06T09:27:33;1.50;;;1.08;;
79149;SDS011;68563;45.644;13.782;2024-03-06T09:29:58;2.45;;;1.30;;
79149;SDS011;68563;45.644;13.782;2024-03-06T09:32:24;2.00;;;1.27;;
79149;SDS011;68563;45.644;13.782;2024-03-06T09:34:51;3.08;;;1.25;;
79149;SDS011;68563;45.644;13.782;2024-03-06T09:37:17;2.47;;;1.10;;
79149;SDS011;68563;45.644;13.782;2024-03-06T09:39:42;4.00;;;1.20;;
79149;SDS011;68563;45.644;13.782;2024-03-06T09:42:11;2.03;;;1.10;;
79149;SDS011;68563;45.644;13.782;2024-03-06T09:44:37;5.45;;;1.27;;
79149;SDS011;68563;45.644;13.782;2024-03-06T09:47:02;3.38;;;1.20;;
79149;SDS011;68563;45.644;13.782;2024-03-06T09:49:28;2.25;;;1.10;;
79149;SDS011;68563;45.644;13.782;2024-03-06T09:51:55;3.45;;;1.23;;
79149;SDS011;68563;45.644;13.782;2024-03-06T09:54:23;3.17;;;1.38;;
79149;SDS011;68563;45.644;13.782;2024-03-06T09:56:51;2.30;;;1.05;;
79149;SDS011;68563;45.644;13.782;2024-03-06T09:59:16;3.97;;;1.20;;
79149;SDS011;68563;45.644;13.782;2024-03-06T10:04:20;1.58;;;0.80;;
79149;SDS011;68563;45.644;13.782;2024-03-06T10:06:47;2.28;;;1.00;;
79149;SDS011;68563;45.644;13.782;2024-03-06T10:09:12;2.05;;;0.90;;
79149;SDS011;68563;45.644;13.782;2024-03-06T10:11:41;4.72;;;1.23;;
79149;SDS011;68563;45.644;13.782;2024-03-06T10:14:07;1.52;;;1.00;;
79149;SDS011;68563;45.644;13.782;2024-03-06T10:16:33;2.10;;;1.20;;
79149;SDS011;68563;45.644;13.782;2024-03-06T10:19:16;3.50;;;1.30;;
79149;SDS011;68563;45.644;13.782;2024-03-06T10:21:43;3.35;;;1.27;;
79149;SDS011;68563;45.644;13.782;2024-03-06T10:24:16;3.78;;;1.20;;
79149;SDS011;68563;45.644;13.782;2024-03-06T10:26:43;4.95;;;1.20;;
79149;SDS011;68563;45.644;13.782;2024-03-06T10:29:10;1.90;;;1.17;;
79149;SDS011;68563;45.644;13.782;2024-03-06T10:31:35;2.65;;;1.20;;
79149;SDS011;68563;45.644;13.782;2024-03-06T10:34:01;3.60;;;1.27;;
79149;SDS011;68563;45.644;13.782;2024-03-06T10:36:26;3.45;;;1.95;;
79149;SDS011;68563;45.644;13.782;2024-03-06T10:38:52;2.92;;;1.23;;
79149;SDS011;68563;45.644;13.782;2024-03-06T10:41:22;3.42;;;1.70;;
79149;SDS011;68563;45.644;13.782;2024-03-06T10:43:50;3.63;;;1.60;;
79149;SDS011;68563;45.644;13.782;2024-03-06T10:46:19;3.10;;;1.30;;
79149;SDS011;68563;45.644;13.782;2024-03-06T10:48:45;6.55;;;1.67;;
79149;SDS011;68563;45.644;13.782;2024-03-06T10:51:12;3.95;;;1.23;;
79149;SDS011;68563;45.644;13.782;2024-03-06T10:53:39;3.08;;;1.23;;
79149;SDS011;68563;45.644;13.782;2024-03-06T10:56:08;3.67;;;1.30;;
79149;SDS011;68563;45.644;13.782;2024-03-06T10:58:34;3.72;;;1.50;;
79149;SDS011;68563;45.644;13.782;2024-03-06T11:01:00;4.65;;;1.05;;
79149;SDS011;68563;45.644;13.782;2024-03-06T11:05:56;2.17;;;1.30;;
79149;SDS011;68563;45.644;13.782;2024-03-06T11:08:22;2.22;;;1.35;;
79149;SDS011;68563;45.644;13.782;2024-03-06T11:10:48;3.67;;;1.38;;
79149;SDS011;68563;45.644;13.782;2024-03-06T11:15:45;2.83;;;1.10;;
79149;SDS011;68563;45.644;13.782;2024-03-06T11:21:38;4.85;;;1.50;;
79149;SDS011;68563;45.644;13.782;2024-03-06T11:26:45;2.20;;;1.20;;
79149;SDS011;68563;45.644;13.782;2024-03-06T11:29:15;3.10;;;1.33;;
79149;SDS011;68563;45.644;13.782;2024-03-06T11:34:26;23.95;;;5.38;;
79149;SDS011;68563;45.644;13.782;2024-03-06T11:36:56;4.78;;;1.85;;
79149;SDS011;68563;45.644;13.782;2024-03-06T11:39:22;4.18;;;1.92;;
79149;SDS011;68563;45.644;13.782;2024-03-06T11:41:48;4.13;;;1.50;;
79149;SDS011;68563;45.644;13.782;2024-03-06T11:44:15;3.72;;;1.50;;
79149;SDS011;68563;45.644;13.782;2024-03-06T11:46:42;1.10;;;0.80;;
79149;SDS011;68563;45.644;13.782;2024-03-06T11:49:14;1.00;;;0.80;;
79149;SDS011;68563;45.644;13.782;2024-03-06T11:51:40;3.97;;;0.95;;
79149;SDS011;68563;45.644;13.782;2024-03-06T11:54:06;2.20;;;1.15;;
79149;SDS011;68563;45.644;13.782;2024-03-06T11:56:32;1.77;;;0.90;;
79149;SDS011;68563;45.644;13.782;2024-03-06T11:58:58;1.30;;;1.10;;
79149;SDS011;68563;45.644;13.782;2024-03-06T12:01:23;1.67;;;0.80;;
79149;SDS011;68563;45.644;13.782;2024-03-06T12:03:49;1.40;;;0.82;;
79149;SDS011;68563;45.644;13.782;2024-03-06T12:06:15;2.13;;;0.73;;
79149;SDS011;68563;45.644;13.782;2024-03-06T12:08:42;1.25;;;0.82;;
79149;SDS011;68563;45.644;13.782;2024-03-06T12:11:07;1.10;;;0.75;;
79149;SDS011;68563;45.644;13.782;2024-03-06T12:13:33;2.75;;;1.00;;
79149;SDS011;68563;45.644;13.782;2024-03-06T12:16:03;2.50;;;0.90;;
79149;SDS011;68563;45.644;13.782;2024-03-06T12:18:29;1.00;;;0.80;;
79149;SDS011;68563;45.644;13.782;2024-03-06T12:20:54;2.25;;;0.80;;
79149;SDS011;68563;45.644;13.782;2024-03-06T12:23:23;2.15;;;0.80;;
79149;SDS011;68563;45.644;13.782;2024-03-06T12:25:50;1.58;;;0.80;;
79149;SDS011;68563;45.644;13.782;2024-03-06T12:28:27;1.58;;;0.73;;
79149;SDS011;68563;45.644;13.782;2024-03-06T12:30:52;1.27;;;0.60;;
79149;SDS011;68563;45.644;13.782;2024-03-06T12:33:18;0.98;;;0.57;;
79149;SDS011;68563;45.644;13.782;2024-03-06T12:35:44;1.00;;;0.60;;
79149;SDS011;68563;45.644;13.782;2024-03-06T12:38:16;0.80;;;0.30;;
79149;SDS011;68563;45.644;13.782;2024-03-06T12:40:42;1.23;;;0.70;;
79149;SDS011;68563;45.644;13.782;2024-03-06T12:43:07;1.63;;;0.85;;
79149;SDS011;68563;45.644;13.782;2024-03-06T12:45:34;3.70;;;1.10;;
79149;SDS011;68563;45.644;13.782;2024-03-06T12:48:01;1.10;;;0.60;;
79149;SDS011;68563;45.644;13.782;2024-03-06T12:50:27;1.50;;;0.70;;
79149;SDS011;68563;45.644;13.782;2024-03-06T12:52:53;0.40;;;0.38;;
79149;SDS011;68563;45.644;13.782;2024-03-06T12:55:18;2.35;;;0.60;;
79149;SDS011;68563;45.644;13.782;2024-03-06T12:57:43;0.90;;;0.80;;
79149;SDS011;68563;45.644;13.782;2024-03-06T13:00:11;2.85;;;0.60;;
79149;SDS011;68563;45.644;13.782;2024-03-06T13:02:43;1.20;;;0.55;;
79149;SDS011;68563;45.644;13.782;2024-03-06T13:05:09;2.05;;;0.60;;
79149;SDS011;68563;45.644;13.782;2024-03-06T13:07:35;1.65;;;0.43;;
79149;SDS011;68563;45.644;13.782;2024-03-06T13:10:01;1.25;;;0.55;;
79149;SDS011;68563;45.644;13.782;2024-03-06T13:12:27;1.48;;;0.55;;
79149;SDS011;68563;45.644;13.782;2024-03-06T13:14:52;2.40;;;0.55;;
79149;SDS011;68563;45.644;13.782;2024-03-06T13:17:19;2.67;;;0.57;;
79149;SDS011;68563;45.644;13.782;2024-03-06T13:19:44;0.57;;;0.30;;
79149;SDS011;68563;45.644;13.782;2024-03-06T13:22:09;5.03;;;0.60;;
79149;SDS011;68563;45.644;13.782;2024-03-06T13:24:35;1.75;;;0.40;;
79149;SDS011;68563;45.644;13.782;2024-03-06T13:27:01;3.13;;;0.40;;
79149;SDS011;68563;45.644;13.782;2024-03-06T13:29:26;0.80;;;0.30;;
79149;SDS011;68563;45.644;13.782;2024-03-06T13:31:52;1.88;;;0.60;;
79149;SDS011;68563;45.644;13.782;2024-03-06T13:34:17;1.77;;;0.50;;
79149;SDS011;68563;45.644;13.782;2024-03-06T13:36:42;0.98;;;0.40;;
79149;SDS011;68563;45.644;13.782;2024-03-06T13:39:08;0.73;;;0.43;;
79149;SDS011;68563;45.644;13.782;2024-03-06T13:41:34;0.88;;;0.35;;
79149;SDS011;68563;45.644;13.782;2024-03-06T13:43:59;1.80;;;0.50;;
79149;SDS011;68563;45.644;13.782;2024-03-06T13:46:25;1.48;;;0.47;;
79149;SDS011;68563;45.644;13.782;2024-03-06T13:48:50;0.63;;;0.30;;
79149;SDS011;68563;45.644;13.782;2024-03-06T13:51:15;2.40;;;0.60;;
79149;SDS011;68563;45.644;13.782;2024-03-06T13:53:41;1.08;;;0.50;;
79149;SDS011;68563;45.644;13.782;2024-03-06T13:56:06;0.95;;;0.40;;
79149;SDS011;68563;45.644;13.782;2024-03-06T13:58:33;2.05;;;0.50;;
79149;SDS011;68563;45.644;13.782;2024-03-06T14:00:58;0.63;;;0.43;;
79149;SDS011;68563;45.644;13.782;2024-03-06T14:03:24;3.15;;;0.70;;
79149;SDS011;68563;45.644;13.782;2024-03-06T14:05:50;1.15;;;0.60;;
79149;SDS011;68563;45.644;13.782;2024-03-06T14:08:16;1.17;;;0.45;;
79149;SDS011;68563;45.644;13.782;2024-03-06T14:10:42;0.50;;;0.35;;
79149;SDS011;68563;45.644;13.782;2024-03-06T14:13:07;0.90;;;0.50;;
79149;SDS011;68563;45.644;13.782;2024-03-06T14:15:33;1.25;;;0.50;;
79149;SDS011;68563;45.644;13.782;2024-03-06T14:17:59;0.65;;;0.35;;
79149;SDS011;68563;45.644;13.782;2024-03-06T14:20:26;2.95;;;0.70;;
79149;SDS011;68563;45.644;13.782;2024-03-06T14:22:52;0.98;;;0.40;;
79149;SDS011;68563;45.644;13.782;2024-03-06T14:25:18;0.43;;;0.30;;
79149;SDS011;68563;45.644;13.782;2024-03-06T14:27:44;3.13;;;0.40;;
79149;SDS011;68563;45.644;13.782;2024-03-06T14:30:10;0.98;;;0.52;;
79149;SDS011;68563;45.644;13.782;2024-03-06T14:32:37;2.28;;;0.70;;
79149;SDS011;68563;45.644;13.782;2024-03-06T14:35:03;3.45;;;0.50;;
79149;SDS011;68563;45.644;13.782;2024-03-06T14:37:28;1.20;;;0.50;;
79149;SDS011;68563;45.644;13.782;2024-03-06T14:39:54;0.50;;;0.32;;